• Join FlightAware (Why Join?)
  • Login
  • US Flag 
12:07AM EDT


 

Airport Tracker/Info


-or-


 

Live Flight TrackerFlight Track Log ✈ EJA947 ✈ 14-Apr-2013 ✈ KBCT - KSTL

Flight Track Log - Related Links

Times and Time Zones

All times are in EDT time to prevent confusion due to time zone crossing. See the EJA947 flight status page for this flight to view local times or setup timezone preferences in your user account.

Time Position Orientation Groundspeed Altitude Reporting Facility
EDT Latitude Longitude Course Direction KTS MPH feet Rate Location/Type
03:48PM 26.4331 -80.2719 346° North 284 327 6,700  Level Miami Center
03:49PM 26.4861 -80.3336 314° West 289 333 8,900 1,800 Climbing Miami Center
03:50PM 26.5150 -80.4275 289° West 289 333 10,300 1,140 Climbing Miami Center
03:51PM 26.5358 -80.5139 285° West 312 359 11,200 1,380 Climbing Miami Center
03:52PM 26.9703 -80.5345 343° North  Level FlightAware Approximate
03:52PM 26.6092 -80.5928 316° Northwest 320 368 13,100  Level Miami Center
03:53PM 27.0936 -80.5720 346° North  Level FlightAware Approximate
03:53PM 26.6964 -80.6094 350° North 317 365 14,400  Level Miami Center
03:54PM 26.8028 -80.6106 359° North 368 423 16,000 1,680 Climbing Miami Center
03:55PM 26.9039 -80.5744 18° North 383 441 17,800 1,560 Climbing Miami Center
03:56PM 26.9919 -80.4817 43° Northeast 369 425 19,200 1,500 Climbing Miami Center
03:57PM 27.0969 -80.4569 12° North 380 437 20,900 1,500 Climbing Miami Center
03:58PM 27.2050 -80.4836 348° North 372 428 22,300 1,380 Climbing Miami Center
03:59PM 27.3061 -80.5264 339° North 379 436 23,700 1,380 Climbing Miami Center
04:00PM 27.4136 -80.5719 339° North 386 444 25,100 960 Climbing Miami Center
04:01PM 27.5208 -80.6175 339° North 404 465 25,700 600 Climbing Miami Center
04:02PM 27.6344 -80.6658 339° North 416 479 26,400 660 Climbing Miami Center
04:03PM 27.7500 -80.7119 341° North 428 493 27,100 660 Climbing Miami Center
04:04PM 27.8617 -80.7581 340° North 452 520 27,800 840 Climbing Miami Center
04:05PM 27.9792 -80.8089 339° North 457 526 28,800 900 Climbing Miami Center
04:06PM 28.1008 -80.8581 340° North 464 534 29,700 1,020 Climbing Miami Center
04:07PM 28.2186 -80.9069 340° North 464 534 30,900 1,260 Climbing Miami Center
04:08PM 28.3361 -80.9583 339° North 458 527 32,300 1,500 Climbing Miami Center
04:09PM 28.4536 -81.0097 339° North 453 521 33,900 1,740 Climbing Miami Center
04:10PM 28.5814 -81.0619 340° North 444 511 35,800 1,680 Climbing Miami Center
04:11PM 28.6822 -81.1058 339° North 439 505 37,300 1,380 Climbing Jacksonville Center
04:12PM 28.7994 -81.1417 345° North 432 497 38,600 840 Climbing Jacksonville Center
04:13PM 28.9231 -81.1703 349° North 432 497 39,000 180 Climbing Jacksonville Center
04:14PM 29.0528 -81.2014 348° North 456 525 39,000  Level Jacksonville Center
04:15PM 29.1847 -81.2325 348° North 469 540 39,000  Level Jacksonville Center
04:16PM 29.3189 -81.2658 348° North 481 554 39,000  Level Jacksonville Center
04:17PM 29.4547 -81.2947 350° North 487 560 39,000  Level Jacksonville Center
04:18PM 29.5972 -81.3306 348° North 474 545 39,000  Level Jacksonville Center
04:19PM 29.7333 -81.3642 348° North 481 554 39,000  Level Jacksonville Center
04:20PM 29.8694 -81.3981 348° North 487 560 39,000  Level Jacksonville Center
04:21PM 30.0033 -81.4294 349° North 487 560 39,000  Level Jacksonville Center
04:22PM 30.1375 -81.4611 348° North 487 560 39,000  Level Jacksonville Center
04:23PM 30.2778 -81.4950 348° North 487 560 39,000  Level Jacksonville Center
04:24PM 30.4014 -81.5536 338° Northwest 487 560 39,000  Level Jacksonville Center
04:25PM 30.4964 -81.6389 322° Northwest 472 543 39,000 -60 Level Jacksonville Center
04:26PM 30.5994 -81.7244 324° Northwest 472 543 38,900  Descending Jacksonville Center
04:27PM 30.7044 -81.8125 324° Northwest 472 543 39,000  Climbing Jacksonville Center
04:28PM 30.8117 -81.9008 325° Northwest 472 543 39,000 240 Level Jacksonville Center
04:29PM 30.9189 -81.9917 324° Northwest 472 543 39,500 360 Climbing Jacksonville Center
04:30PM 31.0219 -82.0806 324° Northwest 472 543 39,800 300 Climbing Jacksonville Center
04:31PM 31.1247 -82.1669 324° Northwest 472 543 40,100 300 Climbing Jacksonville Center
04:32PM 31.2317 -82.2536 325° Northwest 467 537 40,500 360 Climbing Jacksonville Center
04:33PM 31.3322 -82.3406 324° Northwest 460 529 40,900 240 Climbing Jacksonville Center
04:34PM 31.4328 -82.4225 325° Northwest 455 524 41,000  Climbing Jacksonville Center
04:36PM 31.6169 -82.5903 322° Northwest 463 533 41,000  Level Atlanta Center
04:37PM 31.7161 -82.6839 321° Northwest 463 533 41,000  Level Atlanta Center
04:38PM 31.8131 -82.7778 321° Northwest 455 524 41,000  Level Atlanta Center
04:39PM 31.9103 -82.8742 320° Northwest 455 524 41,000  Level Atlanta Center
04:40PM 32.0069 -82.9661 321° Northwest 455 524 41,000  Level Atlanta Center
04:41PM 32.1017 -83.0631 319° Northwest 455 524 41,000  Level Atlanta Center
04:42PM 32.2006 -83.1578 321° Northwest 455 524 41,000  Level Atlanta Center
04:43PM 32.2867 -83.2453 319° Northwest 455 524 41,000  Level Atlanta Center
04:44PM 32.3853 -83.3428 320° Northwest 455 524 41,000  Level Atlanta Center
04:45PM 32.4839 -83.4406 320° Northwest 455 524 41,000  Level Atlanta Center
04:46PM 32.5825 -83.5383 320° Northwest 455 524 41,000  Level Atlanta Center
04:47PM 32.6831 -83.6367 321° Northwest 460 529 41,000  Level Atlanta Center
04:48PM 32.7897 -83.7300 324° Northwest 466 536 41,000  Level Atlanta Center
04:49PM 32.8964 -83.8211 324° Northwest 471 542 41,000  Level Atlanta Center
04:50PM 33.0072 -83.9100 326° Northwest 481 554 41,000 300 Level Atlanta Center
04:51PM 33.1139 -84.0042 324° Northwest 481 554 41,600 840 Climbing Atlanta Center
04:52PM 33.2203 -84.0933 325° Northwest 481 554 42,700 660 Climbing Atlanta Center
04:53PM 33.3244 -84.1806 325° Northwest 470 541 43,000 120 Climbing Atlanta Center
04:54PM 33.4289 -84.2703 324° Northwest 470 541 43,000  Level Atlanta Center
04:55PM 33.5433 -84.3678 325° Northwest 470 541 43,000  Level Atlanta Center
04:56PM 33.6475 -84.4581 324° Northwest 473 544 43,000  Level Atlanta Center
04:57PM 33.7556 -84.5486 325° Northwest 473 544 43,000  Level Atlanta Center
04:58PM 33.8597 -84.6367 325° Northwest 473 544 43,000  Level Atlanta Center
04:59PM 33.9636 -84.7275 324° Northwest 473 544 43,000  Level Atlanta Center
05:00PM 34.0672 -84.8211 323° Northwest 468 539 43,000  Level Atlanta Center
05:01PM 34.1669 -84.9050 325° Northwest 475 547 43,000  Level Atlanta Center
05:02PM 34.2728 -84.9964 324° Northwest 470 541 43,000  Level Atlanta Center
05:03PM 34.3783 -85.0883 324° Northwest 470 541 43,000  Level Atlanta Center
05:04PM 34.4900 -85.1931 322° Northwest 470 541 43,000  Level Atlanta Center
05:05PM 34.5978 -85.2853 325° Northwest 464 534 43,000  Level Atlanta Center
05:06PM 34.7053 -85.3806 324° Northwest 470 541 43,000  Level Atlanta Center
05:07PM 34.8106 -85.4758 323° Northwest 476 548 43,000  Level Atlanta Center
05:11PM 35.2431 -85.8647 324° Northwest 488 562 43,000  Level Memphis Center
05:12PM 35.3594 -85.9731 323° Northwest 488 562 43,000  Level Memphis Center
05:13PM 35.4694 -86.0717 324° Northwest 482 555 43,000  Level Memphis Center
05:14PM 35.5814 -86.1731 324° Northwest 482 555 43,000  Level Memphis Center
05:15PM 35.6758 -86.2603 323° Northwest 482 555 43,000  Level Memphis Center
05:16PM 35.7942 -86.3697 323° Northwest 482 555 43,000  Level Memphis Center
05:17PM 35.9058 -86.4719 323° Northwest 482 555 43,000  Level Memphis Center
05:18PM 36.0131 -86.5719 323° Northwest 476 548 43,000  Level Memphis Center
05:19PM 36.1164 -86.6725 322° Northwest 483 556 43,000  Level Memphis Center
05:20PM 36.1808 -86.8111 300° West 462 532 43,000  Level Memphis Center
05:21PM 36.2433 -86.9603 297° West 473 544 43,000  Level Memphis Center
05:22PM 36.2928 -87.0919 295° West 478 550 43,000  Level Memphis Center
05:23PM 36.3506 -87.2314 297° West 467 537 43,000  Level Memphis Center
05:24PM 36.4061 -87.3761 296° West 462 532 43,000 -300 Level Memphis Center
05:25PM 36.4617 -87.5186 296° West 457 526 42,500 -1,020 Descending Memphis Center
05:26PM 36.5236 -87.6739 296° West 457 526 41,000 -1,260 Descending Memphis Center
05:27PM 36.5808 -87.8297 295° West 476 548 40,000 -1,020 Descending Memphis Center
05:28PM 36.6403 -87.9831 296° West 490 564 39,000 -960 Descending Memphis Center
05:29PM 36.6864 -88.1033 296° West 490 564 38,100 -1,020 Descending Memphis Center
05:30PM 36.7539 -88.2750 296° West 490 564 37,000 -1,080 Descending Memphis Center
05:31PM 36.8106 -88.4342 294° West 501 577 36,000 -1,020 Descending Memphis Center
05:32PM 36.8692 -88.5858 296° West 496 571 35,000 -1,020 Descending Memphis Center
05:33PM 36.9256 -88.7400 295° West 496 571 34,000 -1,020 Descending Memphis Center
05:34PM 36.9817 -88.8975 294° West 496 571 33,000 -900 Descending Memphis Center
05:35PM 37.0397 -89.0575 294° West 501 577 32,200 -1,020 Descending Memphis Center
05:37PM 37.1381 -89.3250 295° West 495 570 30,200 -1,140 Descending Kansas City Center
05:38PM 37.2058 -89.5111 295° West 492 566 29,000 -1,080 Descending Kansas City Center
05:39PM 37.3106 -89.6203 320° Northwest 493 567 28,100 -960 Descending Kansas City Center
05:40PM 37.4372 -89.6889 337° Northwest 495 570 27,100 -960 Descending Kansas City Center
05:41PM 37.5569 -89.7539 337° Northwest 470 541 26,100 -1,020 Descending Kansas City Center
05:42PM 37.6700 -89.8150 337° Northwest 411 473 25,000 -1,020 Descending Kansas City Center
05:43PM 37.7697 -89.8703 336° Northwest 396 456 24,000 -1,020 Descending Kansas City Center
05:44PM 37.8756 -89.9269 337° Northwest 397 457 22,900 -1,080 Descending Kansas City Center
05:44PM 37.9044 -89.8869 48° Northeast 394 453 22,600 -1,440 Descending FAA TRACON SMA TRACON (SMA)
05:45PM 37.9353 -89.9036 337° Northwest 392 451 22,000 -2,280 Descending FAA TRACON SMA TRACON (SMA)
05:45PM 37.9731 -89.9256 335° Northwest 389 448 21,100 -2,280 Descending FAA TRACON SMA TRACON (SMA)
05:45PM 38.0036 -89.9419 337° Northwest 393 452 20,500 -1,800 Descending FAA TRACON SMA TRACON (SMA)
05:46PM 38.0333 -89.9594 335° Northwest 385 443 19,900 -1,980 Descending FAA TRACON SMA TRACON (SMA)
05:46PM 38.0694 -89.9789 337° Northwest 369 425 19,200 -1,680 Descending FAA TRACON SMA TRACON (SMA)
05:46PM 38.0978 -89.9956 335° Northwest 361 415 18,800 -1,380 Descending FAA TRACON SMA TRACON (SMA)
05:47PM 38.1258 -90.0117 336° Northwest 360 414 18,300 -2,400 Descending FAA TRACON SMA TRACON (SMA)
05:47PM 38.1614 -90.0333 334° Northwest 367 422 17,200 -2,580 Descending FAA TRACON SMA TRACON (SMA)
05:47PM 38.1908 -90.0489 337° Northwest 370 426 16,600 -1,800 Descending FAA TRACON SMA TRACON (SMA)
05:48PM 38.2197 -90.0656 336° Northwest 371 427 16,000 -2,100 Descending FAA TRACON SMA TRACON (SMA)
05:48PM 38.2558 -90.0867 335° Northwest 371 427 15,200 -2,100 Descending FAA TRACON SMA TRACON (SMA)
05:48PM 38.2847 -90.1028 336° Northwest 368 423 14,600 -1,680 Descending FAA TRACON SMA TRACON (SMA)
05:49PM 38.3131 -90.1181 337° Northwest 362 417 14,100 -1,800 Descending FAA TRACON SMA TRACON (SMA)
05:49PM 38.3469 -90.1375 336° Northwest 347 399 13,400 -1,980 Descending FAA TRACON SMA TRACON (SMA)
05:49PM 38.3731 -90.1517 337° Northwest 336 387 12,800 -1,680 Descending FAA TRACON SMA TRACON (SMA)
05:50PM 38.3983 -90.1661 336° Northwest 327 376 12,300 -1,800 Descending FAA TRACON SMA TRACON (SMA)
05:50PM 38.4294 -90.1842 336° Northwest 318 366 11,600 -1,800 Descending FAA TRACON SMA TRACON (SMA)
05:50PM 38.4542 -90.1978 337° Northwest 315 362 11,100 -1,380 Descending FAA TRACON SMA TRACON (SMA)
05:51PM 38.4783 -90.2114 336° Northwest 310 357 10,700 -1,200 Descending FAA TRACON SMA TRACON (SMA)
05:51PM 38.5086 -90.2289 336° Northwest 309 356 10,300 -1,080 Descending FAA TRACON SMA TRACON (SMA)
05:51PM 38.5331 -90.2428 336° Northwest 311 358 10,000 -780 Descending FAA TRACON SMA TRACON (SMA)
05:52PM 38.5567 -90.2558 337° Northwest 304 350 9,800 -900 Descending FAA TRACON SMA TRACON (SMA)
05:52PM 38.5850 -90.2719 336° Northwest 290 334 9,400 -1,080 Descending FAA TRACON SMA TRACON (SMA)
05:52PM 38.6069 -90.2844 336° Northwest 282 325 9,100 -900 Descending FAA TRACON SMA TRACON (SMA)
05:53PM 38.6281 -90.2969 335° Northwest 276 318 8,800 -1,080 Descending FAA TRACON SMA TRACON (SMA)
05:53PM 38.6481 -90.3222 315° West 267 307 8,400 -1,200 Descending FAA TRACON SMA TRACON (SMA)
05:53PM 38.6594 -90.3464 301° West 260 299 8,000 -1,200 Descending FAA TRACON SMA TRACON (SMA)
05:54PM 38.6711 -90.3706 302° West 259 298 7,600 -1,200 Descending FAA TRACON SMA TRACON (SMA)
05:54PM 38.6831 -90.3947 302° West 260 299 7,200 -1,380 Descending FAA TRACON SMA TRACON (SMA)
05:54PM 38.6981 -90.4236 304° West 253 291 6,700 -1,380 Descending FAA TRACON SMA TRACON (SMA)
05:55PM 38.7094 -90.4461 303° West 246 283 6,300 -1,380 Descending FAA TRACON SMA TRACON (SMA)
05:55PM 38.7211 -90.4692 303° West 249 287 5,800 -1,680 Descending FAA TRACON SMA TRACON (SMA)
05:55PM 38.7356 -90.4983 302° West 251 289 5,200 -840 Descending FAA TRACON SMA TRACON (SMA)
05:56PM 38.7581 -90.5431 303° West 240 276 5,000 -240 Descending FAA TRACON SMA TRACON (SMA)
05:56PM 38.7722 -90.5683 306° West 229 264 5,000  Level FAA TRACON SMA TRACON (SMA)
05:57PM 38.7836 -90.5883 306° West 226 260 5,000  Level FAA TRACON SMA TRACON (SMA)
05:57PM 38.7950 -90.6094 305° West 231 266 5,000  Level FAA TRACON SMA TRACON (SMA)
05:57PM 38.8189 -90.6219 338° Northwest 253 291 5,000  Level FAA TRACON SMA TRACON (SMA)
05:58PM 38.8381 -90.6133 19° North 254 292 5,000  Level FAA TRACON SMA TRACON (SMA)
05:58PM 38.8508 -90.5953 48° Northeast 239 275 5,000  Level FAA TRACON SMA TRACON (SMA)
05:58PM 38.8581 -90.5744 66° East 216 249 5,000 -300 Level FAA TRACON SMA TRACON (SMA)
05:59PM 38.8633 -90.5483 75° East 202 232 4,800 -780 Descending FAA TRACON SMA TRACON (SMA)
05:59PM 38.8578 -90.5308 112° Southeast 189 217 4,500 -780 Descending FAA TRACON SMA TRACON (SMA)
05:59PM 38.8486 -90.5156 128° Southeast 176 203 4,300 -900 Descending FAA TRACON SMA TRACON (SMA)
06:00PM 38.8378 -90.4956 125° Southeast 177 204 3,900 -1,080 Descending FAA TRACON SMA TRACON (SMA)
06:00PM 38.8294 -90.4789 123° Southeast 178 205 3,600 -900 Descending FAA TRACON SMA TRACON (SMA)
06:00PM 38.8214 -90.4628 123° Southeast 177 204 3,300 -1,080 Descending FAA TRACON SMA TRACON (SMA)
06:01PM 38.8117 -90.4425 122° Southeast 172 198 2,900 -900 Descending FAA TRACON SMA TRACON (SMA)
06:01PM 38.8042 -90.4272 122° Southeast 168 193 2,700 -780 Descending FAA TRACON SMA TRACON (SMA)
06:01PM 38.7967 -90.4125 123° Southeast 162 186 2,400 -900 Descending FAA TRACON SMA TRACON (SMA)
06:02PM 38.7892 -90.3953 119° Southeast 146 168 2,100 -780 Descending FAA TRACON SMA TRACON (SMA)
06:02PM 38.7833 -90.3836 123° Southeast 130 150 1,900 -600 Descending FAA TRACON SMA TRACON (SMA)
06:02PM 38.7772 -90.3719 124° Southeast 126 145 1,700 -600 Descending FAA TRACON SMA TRACON (SMA)
06:03PM 38.7697 -90.3575 124° Southeast 126 145 1,500 -780 Descending FAA TRACON SMA TRACON (SMA)
06:03PM 38.7644 -90.3461 121° Southeast 124 143 1,200 -780 Descending FAA TRACON SMA TRACON (SMA)
06:03PM 38.7586 -90.3344 123° Southeast 126 145 1,000 -600 Descending FAA TRACON SMA TRACON (SMA)
06:04PM 38.7525 -90.3222 123° Southeast 129 148 800 -480 Descending FAA TRACON SMA TRACON (SMA)
06:04PM 38.7481 -90.3136 123° Southeast 127 146 700 -300 Descending FAA TRACON SMA TRACON (SMA)